createdAt,value
2018-03-14T00:00:05.745Z,94190.47
2018-03-14T00:02:32.529Z,94184.34
2018-03-14T00:04:59.306Z,94183.73
2018-03-14T00:07:26.079Z,94184.90
2018-03-14T00:09:52.844Z,94187.16
2018-03-14T00:12:19.612Z,94194.63
2018-03-14T00:14:46.389Z,94197.12
2018-03-14T00:17:13.174Z,94199.15
2018-03-14T00:19:39.960Z,94201.28
2018-03-14T00:22:06.768Z,94194.82
2018-03-14T00:24:33.545Z,94191.14
2018-03-14T00:27:00.320Z,94192.97
2018-03-14T00:29:27.123Z,94190.47
2018-03-14T00:31:53.894Z,94190.22
2018-03-14T00:34:20.676Z,94187.96
2018-03-14T00:36:47.459Z,94187.00
2018-03-14T00:39:14.249Z,94184.34
2018-03-14T00:41:41.029Z,94178.52
2018-03-14T00:44:07.803Z,94176.83
2018-03-14T00:46:34.560Z,94177.06
2018-03-14T00:49:01.336Z,94181.99
2018-03-14T00:51:28.087Z,94182.39
2018-03-14T00:53:54.872Z,94170.94
2018-03-14T00:56:21.661Z,94172.27
2018-03-14T00:58:48.457Z,94162.55
2018-03-14T01:01:15.226Z,94168.27
2018-03-14T01:03:42.000Z,94167.50
2018-03-14T01:06:08.811Z,94174.53
2018-03-14T01:08:35.581Z,94175.09
2018-03-14T01:11:02.368Z,94172.03
2018-03-14T01:13:29.150Z,94173.31
2018-03-14T01:15:55.929Z,94174.24
2018-03-14T01:18:22.711Z,94176.11
2018-03-14T01:20:49.493Z,94176.66
2018-03-14T01:23:16.283Z,94179.33
2018-03-14T01:25:43.069Z,94179.48
2018-03-14T01:28:09.878Z,94177.75
2018-03-14T01:30:36.654Z,94181.34
2018-03-14T01:33:03.431Z,94174.48
2018-03-14T01:35:30.235Z,94170.25
2018-03-14T01:37:58.110Z,94170.00
2018-03-14T01:40:24.886Z,94168.67
2018-03-14T01:42:51.678Z,94164.44
2018-03-14T01:45:18.443Z,94161.77
2018-03-14T01:47:45.209Z,94171.25
2018-03-14T01:50:12.002Z,94171.63
2018-03-14T01:52:38.754Z,94172.95
2018-03-14T01:55:05.519Z,94162.70
2018-03-14T01:57:32.273Z,94160.92
2018-03-14T01:59:59.032Z,94160.69
2018-03-14T02:02:25.788Z,94159.88
2018-03-14T02:04:52.568Z,94156.11
2018-03-14T02:07:19.363Z,94157.70
2018-03-14T02:09:46.140Z,94161.77
2018-03-14T02:12:12.927Z,94157.41
2018-03-14T02:14:39.710Z,94160.00
2018-03-14T02:17:06.526Z,94171.73
2018-03-14T02:19:33.300Z,94171.91
2018-03-14T02:22:00.086Z,94176.42
2018-03-14T02:24:26.884Z,94177.42
2018-03-14T02:26:53.626Z,94172.75
2018-03-14T02:29:20.482Z,94173.69
2018-03-14T02:31:47.174Z,94182.39
2018-03-14T02:34:13.935Z,94175.49
2018-03-14T02:36:40.705Z,94173.20
2018-03-14T02:39:07.466Z,94168.43
2018-03-14T02:41:34.244Z,94169.36
2018-03-14T02:44:01.011Z,94174.29
2018-03-14T02:46:27.772Z,94179.24
2018-03-14T02:48:54.551Z,94180.02
2018-03-14T02:51:21.424Z,94183.48
2018-03-14T02:53:48.187Z,94176.70
2018-03-14T02:56:14.935Z,94185.10
2018-03-14T02:58:41.700Z,94184.17
2018-03-14T03:01:08.460Z,94183.37
2018-03-14T03:03:35.218Z,94187.36
2018-03-14T03:06:02.000Z,94187.52
2018-03-14T03:08:28.760Z,94185.42
2018-03-14T03:10:55.559Z,94188.86
2018-03-14T03:13:22.347Z,94191.52
2018-03-14T03:15:49.121Z,94190.52
2018-03-14T03:18:15.900Z,94190.67
2018-03-14T03:20:42.682Z,94193.49
2018-03-14T03:23:09.464Z,94193.66
2018-03-14T03:25:36.217Z,94193.25
2018-03-14T03:28:03.033Z,94186.75
2018-03-14T03:30:29.790Z,94194.18
2018-03-14T03:32:56.542Z,94189.41
2018-03-14T03:35:23.314Z,94184.09
2018-03-14T03:37:50.071Z,94183.28
2018-03-14T03:40:16.823Z,94192.08
2018-03-14T03:42:43.629Z,94187.13
2018-03-14T03:45:10.402Z,94192.41
2018-03-14T03:47:37.153Z,94193.89
2018-03-14T03:50:03.938Z,94187.52
2018-03-14T03:52:30.727Z,94189.78
2018-03-14T03:54:57.496Z,94190.19
2018-03-14T03:57:24.284Z,94189.02
2018-03-14T03:59:51.072Z,94183.08
2018-03-14T04:02:17.837Z,94188.94
2018-03-14T04:04:44.616Z,94187.92
2018-03-14T04:07:12.253Z,94191.27
2018-03-14T04:09:41.474Z,94195.83
2018-03-14T04:12:08.261Z,94197.94
2018-03-14T04:14:35.038Z,94192.77
2018-03-14T04:17:01.807Z,94195.83
2018-03-14T04:19:28.584Z,94199.95
2018-03-14T04:21:55.362Z,94201.28
2018-03-14T04:24:22.166Z,94196.36
2018-03-14T04:26:48.932Z,94196.52
2018-03-14T04:29:15.731Z,94195.34
2018-03-14T04:31:42.515Z,94198.62
2018-03-14T04:34:09.302Z,94195.19
2018-03-14T04:36:36.077Z,94203.91
2018-03-14T04:39:02.852Z,94203.10
2018-03-14T04:41:29.642Z,94204.99
2018-03-14T04:43:56.505Z,94201.52
2018-03-14T04:46:23.257Z,94199.58
2018-03-14T04:48:50.025Z,94202.48
2018-03-14T04:51:16.782Z,94200.91
2018-03-14T04:53:43.622Z,94207.57
2018-03-14T04:56:10.321Z,94204.99
2018-03-14T04:58:37.096Z,94205.15
2018-03-14T05:01:03.867Z,94203.95
2018-03-14T05:03:30.637Z,94207.81
2018-03-14T05:05:57.443Z,94204.99
2018-03-14T05:08:24.206Z,94210.72
2018-03-14T05:10:50.960Z,94213.06
2018-03-14T05:13:17.724Z,94212.83
2018-03-14T05:15:44.480Z,94215.89
2018-03-14T05:18:11.251Z,94218.55
2018-03-14T05:20:38.010Z,94224.81
2018-03-14T05:23:04.782Z,94227.07
2018-03-14T05:25:31.549Z,94228.56
2018-03-14T05:27:58.306Z,94225.90
2018-03-14T05:30:25.132Z,94226.70
2018-03-14T05:32:51.826Z,94234.29
2018-03-14T05:35:19.049Z,94238.13
2018-03-14T05:37:45.715Z,94234.29
2018-03-14T05:40:12.483Z,94232.47
2018-03-14T05:42:39.249Z,94232.27
2018-03-14T05:45:06.026Z,94233.48
2018-03-14T05:47:32.795Z,94234.47
2018-03-14T05:49:59.567Z,94237.48
2018-03-14T05:52:26.685Z,94235.84
2018-03-14T05:54:53.463Z,94236.64
2018-03-14T05:57:20.234Z,94233.82
2018-03-14T05:59:47.011Z,94236.89
2018-03-14T06:02:13.784Z,94244.00
2018-03-14T06:04:40.556Z,94247.32
2018-03-14T06:07:07.343Z,94248.85
2018-03-14T06:09:34.097Z,94249.86
2018-03-14T06:12:00.849Z,94253.53
2018-03-14T06:14:27.627Z,94260.75
2018-03-14T06:16:54.391Z,94256.51
2018-03-14T06:19:21.168Z,94259.77
2018-03-14T06:21:47.927Z,94262.88
2018-03-14T06:24:14.676Z,94263.16
2018-03-14T06:26:41.444Z,94273.70
2018-03-14T06:29:08.204Z,94268.01
2018-03-14T06:31:34.983Z,94277.33
2018-03-14T06:34:01.750Z,94277.45
2018-03-14T06:36:28.516Z,94283.02
2018-03-14T06:38:55.278Z,94284.11
2018-03-14T06:41:22.029Z,94284.59
2018-03-14T06:43:48.883Z,94284.20
2018-03-14T06:46:15.642Z,94278.31
2018-03-14T06:48:42.444Z,94284.44
2018-03-14T06:51:09.201Z,94284.69
2018-03-14T06:53:35.960Z,94295.59
2018-03-14T06:56:02.732Z,94296.52
2018-03-14T06:58:29.484Z,94298.29
2018-03-14T07:00:56.274Z,94300.27
2018-03-14T07:03:23.035Z,94299.09
2018-03-14T07:05:49.817Z,94303.86
2018-03-14T07:08:16.576Z,94309.34
2018-03-14T07:10:43.338Z,94305.75
2018-03-14T07:13:10.107Z,94308.17
2018-03-14T07:15:36.863Z,94312.70
2018-03-14T07:18:03.628Z,94311.77
2018-03-14T07:20:30.380Z,94306.28
2018-03-14T07:22:57.164Z,94309.19
2018-03-14T07:25:23.918Z,94315.16
2018-03-14T07:27:50.674Z,94308.75
2018-03-14T07:30:17.461Z,94311.01
2018-03-14T07:32:44.222Z,94314.77
2018-03-14T07:35:10.977Z,94319.48
2018-03-14T07:37:37.735Z,94325.17
2018-03-14T07:40:04.559Z,94319.25
2018-03-14T07:42:31.255Z,94317.16
2018-03-14T07:44:58.018Z,94320.05
2018-03-14T07:47:24.812Z,94322.23
2018-03-14T07:49:51.583Z,94320.65
2018-03-14T07:52:18.335Z,94321.05
2018-03-14T07:54:45.098Z,94320.34
2018-03-14T07:57:12.090Z,94322.87
2018-03-14T07:59:41.376Z,94318.41
2018-03-14T08:02:08.132Z,94318.65
2018-03-14T08:04:34.900Z,94319.98
2018-03-14T08:07:01.669Z,94324.22
2018-03-14T08:09:28.430Z,94325.27
2018-03-14T08:11:55.279Z,94323.22
2018-03-14T08:14:21.960Z,94326.53
2018-03-14T08:16:49.101Z,94321.05
2018-03-14T08:19:15.926Z,94326.33
2018-03-14T08:21:42.689Z,94322.83
2018-03-14T08:24:09.450Z,94322.98
2018-03-14T08:26:36.250Z,94324.31
2018-03-14T08:29:03.032Z,94319.36
2018-03-14T08:31:29.830Z,94321.65
2018-03-14T08:33:56.917Z,94321.53
2018-03-14T08:36:23.683Z,94323.27
2018-03-14T08:38:50.433Z,94322.09
2018-03-14T08:41:17.216Z,94326.38
2018-03-14T08:43:43.969Z,94319.78
2018-03-14T08:46:10.726Z,94320.06
2018-03-14T08:48:37.499Z,94320.88
2018-03-14T08:51:04.275Z,94325.40
2018-03-14T08:53:31.041Z,94325.11
2018-03-14T08:55:57.841Z,94329.84
2018-03-14T08:58:24.633Z,94316.61
2018-03-14T09:00:51.392Z,94329.76
2018-03-14T09:03:18.150Z,94328.42
2018-03-14T09:05:44.931Z,94329.76
2018-03-14T09:08:11.751Z,94324.27
2018-03-14T09:10:38.593Z,94321.78
2018-03-14T09:13:05.331Z,94319.27
2018-03-14T09:15:32.095Z,94319.27
2018-03-14T09:17:58.851Z,94315.11
2018-03-14T09:20:25.624Z,94314.74
2018-03-14T09:22:52.380Z,94312.17
2018-03-14T09:25:19.157Z,94306.77
2018-03-14T09:27:45.914Z,94312.67
2018-03-14T09:30:12.733Z,94306.64
2018-03-14T09:32:39.492Z,94311.16
2018-03-14T09:35:06.243Z,94315.48
2018-03-14T09:37:33.004Z,94315.23
2018-03-14T09:39:59.872Z,94310.27
2018-03-14T09:42:26.576Z,94307.92
2018-03-14T09:44:53.337Z,94310.43
2018-03-14T09:47:20.132Z,94301.99
2018-03-14T09:49:46.891Z,94308.66
2018-03-14T09:52:13.653Z,94307.33
2018-03-14T09:54:40.417Z,94305.06
2018-03-14T09:57:07.209Z,94302.52
2018-03-14T09:59:34.010Z,94303.08
2018-03-14T10:02:00.768Z,94295.25
2018-03-14T10:04:27.509Z,94296.58
2018-03-14T10:06:54.269Z,94293.52
2018-03-14T10:09:21.017Z,94298.28
2018-03-14T10:11:47.771Z,94292.58
2018-03-14T10:14:14.547Z,94295.77
2018-03-14T10:16:41.296Z,94293.91
2018-03-14T10:19:08.156Z,94288.19
2018-03-14T10:21:34.862Z,94291.25
2018-03-14T10:24:01.637Z,94289.52
2018-03-14T10:26:28.415Z,94288.19
2018-03-14T10:28:55.202Z,94284.95
2018-03-14T10:31:22.009Z,94288.66
2018-03-14T10:33:48.784Z,94279.58
2018-03-14T10:36:15.577Z,94283.42
2018-03-14T10:38:42.349Z,94283.27
2018-03-14T10:41:09.109Z,94278.90
2018-03-14T10:43:35.890Z,94280.11
2018-03-14T10:46:02.667Z,94279.02
2018-03-14T10:48:29.448Z,94280.62
2018-03-14T10:50:56.230Z,94281.03
2018-03-14T10:53:23.032Z,94273.68
2018-03-14T10:55:49.804Z,94271.27
2018-03-14T10:58:16.592Z,94270.17
2018-03-14T11:01:01.725Z,94266.70
2018-03-14T11:03:46.611Z,94265.53
2018-03-14T11:06:13.384Z,94255.52
2018-03-14T11:08:40.156Z,94248.69
2018-03-14T11:11:06.973Z,94254.27
2018-03-14T11:13:33.746Z,94253.63
2018-03-14T11:16:00.499Z,94252.73
2018-03-14T11:18:27.280Z,94246.63
2018-03-14T11:20:54.039Z,94242.31
2018-03-14T11:23:20.843Z,94239.89
2018-03-14T11:25:47.631Z,94237.55
2018-03-14T11:28:14.410Z,94230.88
2018-03-14T11:30:41.267Z,94237.39
2018-03-14T11:33:07.982Z,94229.34
2018-03-14T11:35:34.780Z,94233.48
2018-03-14T11:38:01.549Z,94230.04
2018-03-14T11:40:28.339Z,94225.11
2018-03-14T11:42:55.116Z,94223.06
2018-03-14T11:45:21.890Z,94220.64
2018-03-14T11:47:48.676Z,94221.03
2018-03-14T11:50:15.465Z,94213.20
2018-03-14T11:52:42.261Z,94210.94
2018-03-14T11:55:09.048Z,94210.05
2018-03-14T11:57:35.810Z,94212.11
2018-03-14T12:00:04.505Z,94211.55
2018-03-14T12:02:31.272Z,94203.64
2018-03-14T12:04:58.054Z,94197.45
2018-03-14T12:07:24.872Z,94200.92
2018-03-14T12:09:51.614Z,94200.84
2018-03-14T12:12:18.423Z,94206.05
2018-03-14T12:14:45.182Z,94201.65
2018-03-14T12:17:12.050Z,94204.48
2018-03-14T12:19:38.739Z,94196.59
2018-03-14T12:22:05.492Z,94197.93
2018-03-14T12:24:32.254Z,94194.02
2018-03-14T12:26:59.020Z,94184.52
2018-03-14T12:29:25.775Z,94186.50
2018-03-14T12:31:52.695Z,94188.44
2018-03-14T12:34:19.477Z,94190.02
2018-03-14T12:36:46.259Z,94188.63
2018-03-14T12:39:13.036Z,94186.61
2018-03-14T12:41:39.814Z,94186.05
2018-03-14T12:44:06.606Z,94199.22
2018-03-14T12:46:33.389Z,94183.70
2018-03-14T12:49:00.211Z,94177.52
2018-03-14T12:51:26.969Z,94193.39
2018-03-14T12:53:53.794Z,94190.52
2018-03-14T12:56:20.564Z,94195.60
2018-03-14T12:58:47.334Z,94189.09
2018-03-14T13:01:14.116Z,94198.19
2018-03-14T13:03:40.870Z,94195.77
2018-03-14T13:06:07.624Z,94188.53
2018-03-14T13:08:34.381Z,94192.37
2018-03-14T13:11:01.131Z,94190.52
2018-03-14T13:13:27.931Z,94187.52
2018-03-14T13:15:54.707Z,94192.33
2018-03-14T13:18:21.488Z,94189.09
2018-03-14T13:20:48.268Z,94189.50
2018-03-14T13:23:15.021Z,94183.15
2018-03-14T13:25:41.800Z,94186.78
2018-03-14T13:28:08.552Z,94183.16
2018-03-14T13:30:35.356Z,94180.05
2018-03-14T13:33:02.102Z,94185.30
2018-03-14T13:35:28.897Z,94184.19
2018-03-14T13:37:55.660Z,94183.94
2018-03-14T13:40:22.433Z,94185.89
2018-03-14T13:42:49.224Z,94182.05
2018-03-14T13:45:16.001Z,94180.23
2018-03-14T13:47:42.802Z,94183.06
2018-03-14T13:50:09.557Z,94179.22
2018-03-14T13:52:36.329Z,94173.78
2018-03-14T13:55:03.093Z,94168.69
2018-03-14T13:57:29.907Z,94172.81
2018-03-14T13:59:56.664Z,94171.32
2018-03-14T14:02:23.418Z,94166.92
2018-03-14T14:04:50.189Z,94165.22
2018-03-14T14:07:16.939Z,94172.97
2018-03-14T14:09:43.716Z,94166.84
2018-03-14T14:12:10.520Z,94169.50
2018-03-14T14:14:37.291Z,94161.67
2018-03-14T14:17:04.044Z,94166.59
2018-03-14T14:19:30.823Z,94165.95
2018-03-14T14:21:57.591Z,94164.63
2018-03-14T14:24:24.368Z,94164.50
2018-03-14T14:26:51.212Z,94158.92
2018-03-14T14:29:18.028Z,94159.53
2018-03-14T14:31:44.782Z,94159.94
2018-03-14T14:34:11.565Z,94155.86
2018-03-14T14:36:38.342Z,94153.97
2018-03-14T14:39:05.130Z,94149.20
2018-03-14T14:41:31.999Z,94153.19
2018-03-14T14:43:58.693Z,94147.70
2018-03-14T14:46:25.462Z,94144.10
2018-03-14T14:48:52.251Z,94146.45
2018-03-14T14:51:19.031Z,94144.98
2018-03-14T14:53:45.799Z,94143.17
2018-03-14T14:56:12.588Z,94145.14
2018-03-14T14:58:39.357Z,94145.70
2018-03-14T15:01:06.156Z,94138.88
2018-03-14T15:03:32.930Z,94141.50
2018-03-14T15:05:59.709Z,94141.42
2018-03-14T15:08:26.485Z,94137.13
2018-03-14T15:10:53.251Z,94146.30
2018-03-14T15:13:20.042Z,94135.10
2018-03-14T15:15:46.897Z,94139.10
2018-03-14T15:18:14.039Z,94138.70
2018-03-14T15:20:40.715Z,94152.33
2018-03-14T15:23:07.476Z,94147.47
2018-03-14T15:25:34.268Z,94155.15
2018-03-14T15:28:01.022Z,94153.73
2018-03-14T15:30:27.788Z,94153.09
2018-03-14T15:32:54.556Z,94152.33
2018-03-14T15:35:21.381Z,94156.85
2018-03-14T15:37:48.126Z,94158.64
2018-03-14T15:40:14.900Z,94157.78
2018-03-14T15:42:41.703Z,94159.28
2018-03-14T15:45:08.461Z,94165.83
2018-03-14T15:47:35.220Z,94170.31
2018-03-14T15:50:02.000Z,94174.59
2018-03-14T15:52:28.773Z,94170.67
2018-03-14T15:54:55.569Z,94172.54
2018-03-14T15:57:22.354Z,94180.62
2018-03-14T15:59:49.150Z,94179.69
2018-03-14T16:02:15.934Z,94180.74
2018-03-14T16:04:42.703Z,94179.80
2018-03-14T16:07:09.538Z,94184.66
2018-03-14T16:09:36.252Z,94183.37
2018-03-14T16:12:03.013Z,94184.62
2018-03-14T16:14:29.779Z,94186.39
2018-03-14T16:16:56.542Z,94191.08
2018-03-14T16:19:23.314Z,94192.17
2018-03-14T16:21:50.067Z,94192.89
2018-03-14T16:24:16.854Z,94199.47
2018-03-14T16:26:43.613Z,94202.38
2018-03-14T16:29:10.395Z,94201.89
2018-03-14T16:31:37.176Z,94205.48
2018-03-14T16:34:03.953Z,94216.63
2018-03-14T16:36:30.742Z,94210.66
2018-03-14T16:38:57.504Z,94208.30
2018-03-14T16:41:24.261Z,94209.39
2018-03-14T16:43:51.057Z,94216.05
2018-03-14T16:46:17.825Z,94228.58
2018-03-14T16:48:44.599Z,94220.73
2018-03-14T16:51:11.427Z,94229.30
2018-03-14T16:53:38.229Z,94234.72
2018-03-14T16:56:04.971Z,94234.67
2018-03-14T16:58:31.728Z,94240.22
2018-03-14T17:00:58.530Z,94244.61
2018-03-14T17:03:25.335Z,94236.82
2018-03-14T17:05:52.098Z,94242.23
2018-03-14T17:08:18.856Z,94248.49
2018-03-14T17:10:45.686Z,94244.20
2018-03-14T17:13:12.431Z,94247.08
2018-03-14T17:15:40.467Z,94257.78
2018-03-14T17:18:07.160Z,94267.12
2018-03-14T17:20:33.971Z,94268.52
2018-03-14T17:23:00.704Z,94265.53
2018-03-14T17:25:27.485Z,94263.47
2018-03-14T17:27:54.255Z,94264.40
2018-03-14T17:30:21.042Z,94270.28
2018-03-14T17:32:47.814Z,94270.53
2018-03-14T17:35:14.597Z,94271.63
2018-03-14T17:37:41.393Z,94275.95
2018-03-14T17:40:08.166Z,94277.12
2018-03-14T17:42:34.965Z,94278.45
2018-03-14T17:45:01.789Z,94274.54
2018-03-14T17:47:28.561Z,94272.84
2018-03-14T17:49:55.344Z,94273.94
2018-03-14T17:52:22.115Z,94275.19
2018-03-14T17:54:48.882Z,94275.59
2018-03-14T17:57:15.646Z,94279.09
2018-03-14T17:59:42.405Z,94282.13
2018-03-14T18:02:09.197Z,94282.16
2018-03-14T18:04:35.960Z,94285.31
2018-03-14T18:07:02.761Z,94279.50
2018-03-14T18:09:29.534Z,94288.50
2018-03-14T18:11:56.300Z,94287.72
2018-03-14T18:14:23.097Z,94289.67
2018-03-14T18:16:49.869Z,94290.88
2018-03-14T18:19:16.679Z,94292.05
2018-03-14T18:21:43.446Z,94291.64
2018-03-14T18:24:10.229Z,94291.29
2018-03-14T18:26:37.101Z,94292.34
2018-03-14T18:29:03.862Z,94293.32
2018-03-14T18:31:30.631Z,94294.21
2018-03-14T18:33:57.396Z,94294.78
2018-03-14T18:36:24.180Z,94290.34
2018-03-14T18:38:50.955Z,94293.54
2018-03-14T18:41:17.724Z,94292.29
2018-03-14T18:43:44.510Z,94292.28
2018-03-14T18:46:11.296Z,94288.94
2018-03-14T18:48:38.090Z,94289.70
2018-03-14T18:51:04.857Z,94283.39
2018-03-14T18:53:31.691Z,94278.38
2018-03-14T18:55:58.394Z,94281.17
2018-03-14T18:58:25.202Z,94285.73
2018-03-14T19:00:51.971Z,94286.26
2018-03-14T19:03:18.729Z,94287.99
2018-03-14T19:05:45.524Z,94293.32
2018-03-14T19:08:12.288Z,94293.16
2018-03-14T19:10:39.037Z,94294.01
2018-03-14T19:13:05.820Z,94290.73
2018-03-14T19:15:32.605Z,94292.44
2018-03-14T19:17:59.410Z,94299.74
2018-03-14T19:20:26.186Z,94305.23
2018-03-14T19:22:52.955Z,94306.56
2018-03-14T19:25:19.725Z,94310.88
2018-03-14T19:27:46.517Z,94307.97
2018-03-14T19:30:13.318Z,94305.67
2018-03-14T19:32:40.118Z,94311.25
2018-03-14T19:35:06.868Z,94320.25
2018-03-14T19:37:33.635Z,94308.57
2018-03-14T19:40:00.416Z,94316.69
2018-03-14T19:42:27.830Z,94316.94
2018-03-14T19:44:54.623Z,94318.18
2018-03-14T19:47:21.397Z,94316.52
2018-03-14T19:49:48.157Z,94317.94
2018-03-14T19:52:14.947Z,94315.27
2018-03-14T19:54:41.709Z,94323.36
2018-03-14T19:57:08.475Z,94323.75
2018-03-14T19:59:35.248Z,94328.55
2018-03-14T20:02:02.029Z,94329.89
2018-03-14T20:04:28.798Z,94332.31
2018-03-14T20:06:55.583Z,94328.57
2018-03-14T20:09:22.346Z,94329.22
2018-03-14T20:11:49.100Z,94329.59
2018-03-14T20:14:15.866Z,94327.97
2018-03-14T20:16:42.655Z,94333.95
2018-03-14T20:19:09.477Z,94328.86
2018-03-14T20:21:36.183Z,94334.23
2018-03-14T20:24:02.957Z,94335.12
2018-03-14T20:26:29.745Z,94336.30
2018-03-14T20:28:56.502Z,94331.44
2018-03-14T20:31:23.293Z,94338.10
2018-03-14T20:33:50.065Z,94335.72
2018-03-14T20:36:16.823Z,94331.48
2018-03-14T20:38:43.601Z,94335.63
2018-03-14T20:41:10.355Z,94336.56
2018-03-14T20:43:37.167Z,94332.57
2018-03-14T20:46:03.918Z,94332.89
2018-03-14T20:48:30.705Z,94332.64
2018-03-14T20:50:57.482Z,94327.75
2018-03-14T20:53:24.254Z,94333.53
2018-03-14T20:55:51.060Z,94337.16
2018-03-14T20:58:17.834Z,94338.48
2018-03-14T21:00:44.598Z,94330.61
2018-03-14T21:03:11.366Z,94337.84
2018-03-14T21:05:38.137Z,94338.61
2018-03-14T21:08:04.951Z,94342.48
2018-03-14T21:10:31.721Z,94344.74
2018-03-14T21:12:58.495Z,94337.19
2018-03-14T21:15:25.277Z,94345.83
2018-03-14T21:17:52.045Z,94347.16
2018-03-14T21:20:18.918Z,94345.42
2018-03-14T21:22:45.621Z,94353.02
2018-03-14T21:25:12.397Z,94346.77
2018-03-14T21:27:39.177Z,94351.16
2018-03-14T21:30:05.958Z,94344.34
2018-03-14T21:32:32.737Z,94352.28
2018-03-14T21:34:59.512Z,94353.27
2018-03-14T21:37:26.326Z,94351.41
2018-03-14T21:39:53.096Z,94358.11
2018-03-14T21:42:19.889Z,94354.52
2018-03-14T21:44:46.647Z,94357.66
2018-03-14T21:47:13.420Z,94362.16
2018-03-14T21:49:40.228Z,94360.66
2018-03-14T21:52:07.004Z,94361.87
2018-03-14T21:54:33.776Z,94357.95
2018-03-14T21:57:00.545Z,94362.60
2018-03-14T21:59:27.316Z,94364.38
2018-03-14T22:01:54.095Z,94360.53
2018-03-14T22:04:20.875Z,94363.89
2018-03-14T22:06:47.672Z,94368.77
2018-03-14T22:09:14.482Z,94367.68
2018-03-14T22:11:41.247Z,94363.68
2018-03-14T22:14:08.028Z,94367.23
2018-03-14T22:16:34.779Z,94372.16
2018-03-14T22:19:01.607Z,94370.46
2018-03-14T22:21:28.357Z,94372.48
2018-03-14T22:23:55.127Z,94372.77
2018-03-14T22:26:21.941Z,94370.75
2018-03-14T22:28:48.701Z,94361.98
2018-03-14T22:31:15.529Z,94360.93
2018-03-14T22:33:42.296Z,94365.86
2018-03-14T22:36:09.057Z,94367.59
2018-03-14T22:38:35.819Z,94364.23
2018-03-14T22:41:02.574Z,94364.08
2018-03-14T22:43:29.404Z,94365.17
2018-03-14T22:45:56.156Z,94365.33
2018-03-14T22:48:22.916Z,94372.83
2018-03-14T22:50:49.679Z,94373.08
2018-03-14T22:53:16.498Z,94382.56
2018-03-14T22:55:43.274Z,94382.93
2018-03-14T22:58:10.037Z,94381.98
2018-03-14T23:00:36.792Z,94379.65
2018-03-14T23:03:03.597Z,94383.89
2018-03-14T23:05:30.352Z,94385.84
2018-03-14T23:07:57.154Z,94385.72
2018-03-14T23:10:23.919Z,94383.58
2018-03-14T23:12:50.675Z,94378.66
2018-03-14T23:15:17.478Z,94379.83
2018-03-14T23:17:44.279Z,94381.16
2018-03-14T23:20:10.980Z,94381.72
2018-03-14T23:22:37.760Z,94386.89
2018-03-14T23:25:04.520Z,94389.06
2018-03-14T23:27:31.294Z,94388.14
2018-03-14T23:29:58.098Z,94383.98
2018-03-14T23:32:24.866Z,94386.93
2018-03-14T23:34:51.659Z,94386.93
2018-03-14T23:37:18.470Z,94380.83
2018-03-14T23:39:45.201Z,94387.08
2018-03-14T23:42:11.959Z,94384.98
2018-03-14T23:44:38.754Z,94388.98
2018-03-14T23:47:05.519Z,94389.10
2018-03-14T23:49:32.288Z,94395.77
2018-03-14T23:51:59.054Z,94397.66
2018-03-14T23:54:25.824Z,94392.33
2018-03-14T23:56:52.605Z,94389.10
2018-03-14T23:59:19.356Z,94399.55
